createdAt,value
2019-02-23T00:01:49.560Z,19.73
2019-02-23T00:04:19.685Z,19.10
2019-02-23T00:06:49.551Z,19.40
2019-02-23T00:09:19.116Z,21.12
2019-02-23T00:11:48.698Z,22.77
2019-02-23T00:14:18.311Z,21.90
2019-02-23T00:16:48.141Z,21.70
2019-02-23T00:19:24.883Z,20.40
2019-02-23T00:21:49.616Z,24.47
2019-02-23T00:24:19.248Z,21.80
2019-02-23T00:26:49.063Z,24.87
2019-02-23T00:29:18.656Z,23.50
2019-02-23T00:31:49.036Z,19.35
2019-02-23T00:34:18.630Z,23.40
2019-02-23T00:36:48.433Z,21.23
2019-02-23T00:39:18.027Z,21.97
2019-02-23T00:41:48.113Z,19.80
2019-02-23T00:44:17.744Z,19.32
2019-02-23T00:46:47.845Z,18.73
2019-02-23T00:49:17.900Z,19.60
2019-02-23T00:51:47.738Z,20.90
2019-02-23T00:54:17.351Z,18.05
2019-02-23T00:56:47.169Z,17.55
2019-02-23T00:59:16.992Z,17.02
2019-02-23T01:01:46.795Z,16.65
2019-02-23T01:04:16.393Z,18.12
2019-02-23T01:06:46.515Z,14.98
2019-02-23T01:09:16.930Z,15.15
2019-02-23T01:11:46.890Z,15.80
2019-02-23T01:14:16.743Z,16.97
2019-02-23T01:16:46.598Z,16.82
2019-02-23T01:19:16.548Z,16.57
2019-02-23T01:21:46.154Z,16.60
2019-02-23T01:24:15.758Z,15.23
2019-02-23T01:26:45.797Z,16.82
2019-02-23T01:29:15.430Z,16.62
2019-02-23T01:31:45.248Z,15.50
2019-02-23T01:34:15.074Z,19.52
2019-02-23T01:36:44.908Z,16.60
2019-02-23T01:39:14.848Z,17.40
2019-02-23T01:41:44.417Z,18.42
2019-02-23T01:44:14.567Z,17.75
2019-02-23T01:46:44.125Z,14.98
2019-02-23T01:49:13.713Z,17.73
2019-02-23T01:51:43.570Z,17.65
2019-02-23T01:54:13.108Z,19.17
2019-02-23T01:56:43.002Z,17.90
2019-02-23T01:59:12.556Z,17.70
2019-02-23T02:01:43.022Z,15.63
2019-02-23T02:04:12.862Z,17.48
2019-02-23T02:06:42.689Z,18.57
2019-02-23T02:09:12.510Z,20.20
2019-02-23T02:11:42.569Z,18.02
2019-02-23T02:14:12.411Z,17.30
2019-02-23T02:16:42.239Z,19.65
2019-02-23T02:19:12.103Z,19.80
2019-02-23T02:21:41.710Z,22.90
2019-02-23T02:24:11.298Z,19.90
2019-02-23T02:26:40.871Z,20.88
2019-02-23T02:29:10.765Z,17.65
2019-02-23T02:31:40.944Z,18.12
2019-02-23T02:34:28.936Z,19.30
2019-02-23T02:36:58.551Z,19.70
2019-02-23T02:39:28.375Z,19.20
2019-02-23T02:41:58.525Z,23.42
2019-02-23T02:44:28.051Z,21.10
2019-02-23T02:46:57.896Z,19.95
2019-02-23T02:49:27.465Z,19.82
2019-02-23T02:51:57.344Z,20.95
2019-02-23T02:54:27.129Z,19.25
2019-02-23T02:56:56.753Z,23.80
2019-02-23T02:59:26.805Z,20.48
2019-02-23T03:01:58.827Z,22.90
2019-02-23T03:04:27.864Z,21.62
2019-02-23T03:06:57.788Z,22.40
2019-02-23T03:09:27.326Z,21.37
2019-02-23T03:11:57.185Z,23.02
2019-02-23T03:14:26.751Z,24.05
2019-02-23T03:16:56.338Z,23.77
2019-02-23T03:19:26.135Z,21.50
2019-02-23T03:21:55.996Z,23.35
2019-02-23T03:24:25.602Z,24.12
2019-02-23T03:26:55.178Z,20.62
2019-02-23T03:29:25.042Z,23.87
2019-02-23T03:31:54.649Z,22.02
2019-02-23T03:34:24.708Z,22.65
2019-02-23T03:36:54.564Z,26.80
2019-02-23T03:39:24.124Z,21.82
2019-02-23T03:41:53.712Z,28.30
2019-02-23T03:44:23.839Z,23.30
2019-02-23T03:46:53.651Z,24.02
2019-02-23T03:49:23.476Z,25.12
2019-02-23T03:51:53.042Z,23.73
2019-02-23T03:54:22.869Z,22.48
2019-02-23T03:56:52.805Z,24.60
2019-02-23T03:59:23.183Z,25.57
2019-02-23T04:01:52.820Z,22.35
2019-02-23T04:04:22.412Z,20.68
2019-02-23T04:06:51.997Z,20.52
2019-02-23T04:09:21.864Z,23.57
2019-02-23T04:11:51.964Z,24.60
2019-02-23T04:14:21.587Z,25.20
2019-02-23T04:16:51.159Z,23.25
2019-02-23T04:19:20.750Z,25.30
2019-02-23T04:21:50.334Z,23.70
2019-02-23T04:24:19.925Z,24.15
2019-02-23T04:26:49.497Z,26.87
2019-02-23T04:29:19.135Z,26.02
2019-02-23T04:31:50.440Z,25.17
2019-02-23T04:34:20.008Z,26.30
2019-02-23T04:36:50.065Z,25.70
2019-02-23T04:39:19.679Z,26.17
2019-02-23T04:41:49.489Z,27.35
2019-02-23T04:44:19.337Z,26.82
2019-02-23T04:46:49.482Z,29.37
2019-02-23T04:49:19.299Z,29.52
2019-02-23T04:51:49.411Z,27.93
2019-02-23T04:54:19.271Z,30.92
2019-02-23T04:56:49.095Z,29.77
2019-02-23T04:59:18.872Z,30.00
2019-02-23T05:01:48.392Z,28.75
2019-02-23T05:04:18.251Z,36.30
2019-02-23T05:06:47.839Z,32.15
2019-02-23T05:09:17.432Z,32.35
2019-02-23T05:11:47.248Z,31.25
2019-02-23T05:14:16.837Z,29.48
2019-02-23T05:16:46.372Z,30.88
2019-02-23T05:19:15.999Z,30.02
2019-02-23T05:21:45.613Z,36.63
2019-02-23T05:24:15.456Z,38.40
2019-02-23T05:26:44.999Z,33.38
2019-02-23T05:29:14.828Z,35.90
2019-02-23T05:31:44.447Z,38.23
2019-02-23T05:34:14.489Z,39.88
2019-02-23T05:36:44.048Z,35.95
2019-02-23T05:39:13.753Z,37.10
2019-02-23T05:41:43.558Z,34.70
2019-02-23T05:44:13.372Z,39.00
2019-02-23T05:46:43.149Z,41.60
2019-02-23T05:49:12.943Z,34.30
2019-02-23T05:51:42.601Z,36.13
2019-02-23T05:54:12.420Z,35.88
2019-02-23T05:56:42.021Z,36.08
2019-02-23T05:59:11.862Z,34.48
2019-02-23T06:01:41.685Z,39.23
2019-02-23T06:04:12.438Z,40.63
2019-02-23T06:06:42.019Z,41.20
2019-02-23T06:09:11.855Z,36.95
2019-02-23T06:11:41.717Z,37.38
2019-02-23T06:14:11.589Z,37.93
2019-02-23T06:16:41.167Z,40.23
2019-02-23T06:19:11.252Z,39.27
2019-02-23T06:21:53.044Z,43.28
2019-02-23T06:24:12.332Z,41.28
2019-02-23T06:26:42.172Z,40.30
2019-02-23T06:29:11.729Z,40.90
2019-02-23T06:31:41.844Z,40.60
2019-02-23T06:34:16.246Z,40.90
2019-02-23T06:36:42.916Z,37.90
2019-02-23T06:39:12.728Z,37.33
2019-02-23T06:41:42.327Z,40.33
2019-02-23T06:44:12.161Z,42.83
2019-02-23T06:46:41.767Z,40.65
2019-02-23T06:49:11.581Z,39.65
2019-02-23T06:51:41.171Z,37.20
2019-02-23T06:54:11.031Z,41.75
2019-02-23T06:56:40.884Z,41.80
2019-02-23T06:59:10.478Z,43.58
2019-02-23T07:01:40.068Z,41.37
2019-02-23T07:04:09.645Z,44.60
2019-02-23T07:06:39.382Z,47.50
2019-02-23T07:09:09.540Z,40.45
2019-02-23T07:11:39.409Z,38.40
2019-02-23T07:14:09.009Z,43.20
2019-02-23T07:16:38.822Z,38.25
2019-02-23T07:19:08.403Z,40.85
2019-02-23T07:21:38.259Z,39.67
2019-02-23T07:24:08.198Z,42.70
2019-02-23T07:26:37.999Z,42.60
2019-02-23T07:29:07.840Z,38.75
2019-02-23T07:31:37.712Z,40.63
2019-02-23T07:34:07.821Z,37.90
2019-02-23T07:36:37.647Z,36.00
2019-02-23T07:39:07.547Z,38.45
2019-02-23T07:41:37.355Z,36.23
2019-02-23T07:44:06.988Z,40.80
2019-02-23T07:46:37.356Z,42.27
2019-02-23T07:49:06.913Z,37.45
2019-02-23T07:51:36.792Z,40.88
2019-02-23T07:54:06.629Z,39.63
2019-02-23T07:56:36.171Z,41.58
2019-02-23T07:59:05.787Z,38.28
2019-02-23T08:01:35.641Z,38.60
2019-02-23T08:04:05.219Z,38.55
2019-02-23T08:06:35.303Z,40.50
2019-02-23T08:09:06.065Z,37.20
2019-02-23T08:11:36.147Z,35.08
2019-02-23T08:14:05.739Z,43.13
2019-02-23T08:16:35.552Z,38.78
2019-02-23T08:19:05.489Z,38.30
2019-02-23T08:21:35.105Z,39.20
2019-02-23T08:24:04.700Z,40.60
2019-02-23T08:26:34.378Z,36.33
2019-02-23T08:29:04.318Z,40.58
2019-02-23T08:31:34.531Z,36.33
2019-02-23T08:34:04.696Z,35.90
2019-02-23T08:36:34.366Z,37.93
2019-02-23T08:39:04.404Z,37.67
2019-02-23T08:41:34.126Z,37.85
2019-02-23T08:44:03.701Z,36.85
2019-02-23T08:46:33.527Z,35.52
2019-02-23T08:49:03.642Z,36.23
2019-02-23T08:51:33.199Z,35.50
2019-02-23T08:54:03.086Z,36.38
2019-02-23T08:56:32.629Z,39.03
2019-02-23T08:59:02.483Z,38.83
2019-02-23T09:01:32.614Z,36.50
2019-02-23T09:04:02.192Z,32.40
2019-02-23T09:06:31.806Z,36.03
2019-02-23T09:09:01.640Z,32.30
2019-02-23T09:11:31.520Z,31.80
2019-02-23T09:14:01.113Z,29.12
2019-02-23T09:16:30.985Z,33.25
2019-02-23T09:19:00.567Z,32.85
2019-02-23T09:21:30.212Z,30.48
2019-02-23T09:23:59.812Z,31.23
2019-02-23T09:26:29.735Z,32.38
2019-02-23T09:28:59.272Z,32.05
2019-02-23T09:31:29.730Z,30.35
2019-02-23T09:33:59.803Z,35.35
2019-02-23T09:36:29.446Z,33.58
2019-02-23T09:38:59.535Z,30.37
2019-02-23T09:41:29.382Z,32.53
2019-02-23T09:43:58.986Z,30.32
2019-02-23T09:46:29.179Z,36.15
2019-02-23T09:48:58.733Z,30.60
2019-02-23T09:51:28.441Z,31.00
2019-02-23T09:53:58.047Z,27.60
2019-02-23T09:56:27.764Z,31.73
2019-02-23T09:58:57.606Z,31.10
2019-02-23T10:01:27.168Z,30.68
2019-02-23T10:03:56.937Z,31.90
2019-02-23T10:06:26.556Z,30.10
2019-02-23T10:08:56.634Z,32.10
2019-02-23T10:11:26.369Z,29.92
2019-02-23T10:13:56.108Z,28.57
2019-02-23T10:16:25.703Z,29.60
2019-02-23T10:18:55.263Z,32.17
2019-02-23T10:21:25.154Z,29.75
2019-02-23T10:23:54.745Z,27.05
2019-02-23T10:26:24.612Z,28.20
2019-02-23T10:28:54.190Z,26.02
2019-02-23T10:31:24.348Z,27.55
2019-02-23T10:33:54.168Z,27.40
2019-02-23T10:36:23.756Z,27.60
2019-02-23T10:38:53.618Z,22.62
2019-02-23T10:41:23.225Z,25.05
2019-02-23T10:43:53.353Z,26.33
2019-02-23T10:46:22.982Z,24.92
2019-02-23T10:48:52.582Z,20.95
2019-02-23T10:51:22.443Z,27.90
2019-02-23T10:53:52.067Z,27.85
2019-02-23T10:56:21.927Z,27.13
2019-02-23T10:58:51.803Z,25.68
2019-02-23T11:01:21.391Z,24.40
2019-02-23T11:03:51.515Z,24.55
2019-02-23T11:06:21.115Z,24.80
2019-02-23T11:08:50.739Z,24.37
2019-02-23T11:11:20.358Z,28.85
2019-02-23T11:13:50.153Z,29.07
2019-02-23T11:16:20.007Z,28.42
2019-02-23T11:18:49.663Z,27.45
2019-02-23T11:21:19.208Z,26.52
2019-02-23T11:23:49.468Z,24.87
2019-02-23T11:26:19.058Z,23.73
2019-02-23T11:28:49.033Z,25.35
2019-02-23T11:31:18.955Z,28.92
2019-02-23T11:33:48.548Z,26.42
2019-02-23T11:36:18.168Z,25.23
2019-02-23T11:38:48.222Z,25.62
2019-02-23T11:41:17.761Z,26.62
2019-02-23T11:43:47.703Z,21.68
2019-02-23T11:46:17.312Z,21.57
2019-02-23T11:48:47.174Z,24.65
2019-02-23T11:51:16.736Z,21.65
2019-02-23T11:53:54.620Z,21.23
2019-02-23T11:56:18.142Z,20.05
2019-02-23T11:58:47.736Z,19.87
2019-02-23T12:01:17.312Z,20.65
2019-02-23T12:03:46.899Z,21.87
2019-02-23T12:06:16.497Z,20.90
2019-02-23T12:08:46.348Z,18.87
2019-02-23T12:11:15.908Z,17.48
2019-02-23T12:13:45.493Z,18.62
2019-02-23T12:16:15.334Z,18.98
2019-02-23T12:18:44.892Z,17.75
2019-02-23T12:21:14.728Z,18.23
2019-02-23T12:23:44.674Z,16.82
2019-02-23T12:26:14.514Z,20.80
2019-02-23T12:28:44.148Z,17.75
2019-02-23T12:31:13.913Z,18.85
2019-02-23T12:33:43.752Z,21.25
2019-02-23T12:36:13.636Z,18.90
2019-02-23T12:38:43.178Z,18.10
2019-02-23T12:41:12.787Z,18.27
2019-02-23T12:43:42.357Z,16.90
2019-02-23T12:46:11.963Z,17.55
2019-02-23T12:48:41.512Z,17.67
2019-02-23T12:51:11.083Z,20.10
2019-02-23T12:53:40.704Z,19.05
2019-02-23T12:56:10.322Z,17.35
2019-02-23T12:58:39.849Z,16.75
2019-02-23T13:01:09.464Z,16.82
2019-02-23T13:03:39.074Z,19.10
2019-02-23T13:06:09.023Z,18.92
2019-02-23T13:09:12.656Z,17.37
2019-02-23T13:11:43.192Z,17.00
2019-02-23T13:15:01.720Z,16.90
2019-02-23T13:18:04.638Z,19.45
2019-02-23T13:20:45.431Z,23.12
2019-02-23T13:23:48.618Z,18.85
2019-02-23T13:26:45.454Z,15.65
2019-02-23T13:29:59.766Z,16.55
2019-02-23T13:33:04.971Z,16.55
2019-02-23T13:36:15.516Z,18.12
2019-02-23T13:39:28.019Z,15.93
2019-02-23T13:42:31.879Z,16.02
2019-02-23T13:45:21.791Z,16.02
2019-02-23T13:48:41.323Z,17.25
2019-02-23T13:51:42.825Z,16.95
2019-02-23T13:55:07.243Z,15.90
2019-02-23T13:58:04.656Z,14.80
2019-02-23T14:01:01.242Z,12.25
2019-02-23T14:03:55.509Z,15.00
2019-02-23T14:06:52.667Z,13.70
2019-02-23T14:09:43.340Z,13.68
2019-02-23T14:13:04.303Z,11.03
2019-02-23T14:16:17.421Z,12.70
2019-02-23T14:19:33.975Z,12.13
2019-02-23T14:22:35.451Z,11.63
2019-02-23T14:25:36.388Z,11.22
2019-02-23T14:29:14.314Z,11.35
2019-02-23T14:32:26.635Z,12.33
2019-02-23T14:35:20.044Z,10.70
2019-02-23T14:38:29.167Z,10.85
2019-02-23T14:41:36.883Z,9.98
2019-02-23T14:44:42.660Z,9.75
2019-02-23T14:48:01.911Z,9.18
2019-02-23T14:51:39.252Z,8.28
2019-02-23T14:54:22.083Z,9.53
2019-02-23T14:57:35.082Z,8.55
2019-02-23T15:00:19.147Z,10.08
2019-02-23T15:03:20.504Z,10.60
2019-02-23T15:06:16.877Z,8.75
2019-02-23T15:09:17.800Z,9.05
2019-02-23T15:12:34.118Z,9.33
2019-02-23T15:15:32.664Z,9.15
2019-02-23T15:18:24.575Z,9.65
2019-02-23T15:21:18.149Z,9.53
2019-02-23T15:24:13.032Z,11.00
2019-02-23T15:27:25.056Z,9.73
2019-02-23T15:30:30.501Z,9.28
2019-02-23T15:33:39.385Z,9.80
2019-02-23T15:36:47.062Z,9.33
2019-02-23T15:39:46.915Z,11.43
2019-02-23T15:42:58.867Z,9.95
2019-02-23T15:46:36.237Z,11.65
2019-02-23T15:49:30.646Z,11.20
2019-02-23T15:52:01.842Z,12.68
2019-02-23T15:54:31.858Z,12.50
2019-02-23T15:57:01.958Z,11.53
2019-02-23T15:59:31.770Z,15.00
2019-02-23T16:02:01.602Z,13.60
2019-02-23T16:04:31.453Z,14.30
2019-02-23T16:07:01.451Z,14.30
2019-02-23T16:09:31.016Z,15.83
2019-02-23T16:12:01.061Z,17.12
2019-02-23T16:14:31.177Z,17.12
2019-02-23T16:17:01.040Z,13.40
2019-02-23T16:19:31.149Z,17.02
2019-02-23T16:22:00.736Z,15.25
2019-02-23T16:24:30.580Z,14.20
2019-02-23T16:27:00.173Z,13.60
2019-02-23T16:29:29.751Z,11.68
2019-02-23T16:31:59.339Z,14.50
2019-02-23T16:34:29.155Z,15.90
2019-02-23T16:36:58.806Z,14.35
2019-02-23T16:39:28.377Z,12.68
2019-02-23T16:41:57.998Z,12.37
2019-02-23T16:44:27.627Z,13.98
2019-02-23T16:46:57.239Z,13.95
2019-02-23T16:49:26.811Z,11.75
2019-02-23T16:51:56.408Z,13.90
2019-02-23T16:54:26.077Z,12.53
2019-02-23T16:56:55.991Z,11.20
2019-02-23T16:59:25.552Z,12.13
2019-02-23T17:01:55.498Z,13.78
2019-02-23T17:04:25.134Z,12.18
2019-02-23T17:06:54.677Z,11.33
2019-02-23T17:09:25.696Z,14.00
2019-02-23T17:11:55.541Z,13.38
2019-02-23T17:14:25.128Z,14.98
2019-02-23T17:16:54.700Z,13.48
2019-02-23T17:19:24.548Z,12.53
2019-02-23T17:21:54.152Z,14.87
2019-02-23T17:24:24.039Z,12.50
2019-02-23T17:26:53.594Z,12.43
2019-02-23T17:29:23.499Z,11.65
2019-02-23T17:31:53.049Z,12.40
2019-02-23T17:34:22.678Z,12.07
2019-02-23T17:36:52.388Z,14.95
2019-02-23T17:39:22.277Z,15.85
2019-02-23T17:41:51.906Z,14.53
2019-02-23T17:44:21.810Z,15.32
2019-02-23T17:46:51.878Z,14.50
2019-02-23T17:49:21.454Z,14.73
2019-02-23T17:51:51.285Z,14.78
2019-02-23T17:54:21.383Z,16.05
2019-02-23T17:56:50.943Z,15.58
2019-02-23T17:59:20.808Z,16.85
2019-02-23T18:01:50.601Z,15.28
2019-02-23T18:04:20.435Z,13.98
2019-02-23T18:06:49.992Z,17.77
2019-02-23T18:09:19.703Z,15.35
2019-02-23T18:11:49.338Z,13.98
2019-02-23T18:14:19.169Z,15.83
2019-02-23T18:16:48.980Z,13.22
2019-02-23T18:19:18.810Z,18.40
2019-02-23T18:21:48.380Z,15.35
2019-02-23T18:24:18.272Z,15.65
2019-02-23T18:26:47.880Z,15.72
2019-02-23T18:29:17.493Z,16.50
2019-02-23T18:31:47.628Z,16.00
2019-02-23T18:34:17.522Z,14.85
2019-02-23T18:36:47.576Z,15.80
2019-02-23T18:39:17.446Z,16.52
2019-02-23T18:41:47.033Z,13.78
2019-02-23T18:44:16.614Z,15.55
2019-02-23T18:46:46.737Z,14.33
2019-02-23T18:49:16.308Z,16.32
2019-02-23T18:51:46.251Z,18.02
2019-02-23T18:54:15.821Z,13.83
2019-02-23T18:56:45.661Z,16.93
2019-02-23T18:59:15.279Z,14.50
2019-02-23T19:01:44.950Z,14.13
2019-02-23T19:04:14.630Z,13.65
2019-02-23T19:06:44.203Z,13.55
2019-02-23T19:09:14.037Z,14.15
2019-02-23T19:11:43.914Z,14.68
2019-02-23T19:14:13.770Z,16.82
2019-02-23T19:16:43.461Z,17.92
2019-02-23T19:19:13.378Z,15.05
2019-02-23T19:21:43.374Z,16.27
2019-02-23T19:24:13.009Z,15.15
2019-02-23T19:26:42.610Z,12.75
2019-02-23T19:29:12.422Z,15.70
2019-02-23T19:31:42.050Z,13.85
2019-02-23T19:34:11.834Z,14.75
2019-02-23T19:36:41.573Z,12.50
2019-02-23T19:39:11.116Z,10.82
2019-02-23T19:41:40.679Z,15.40
2019-02-23T19:44:10.229Z,15.32
2019-02-23T19:46:45.780Z,14.15
2019-02-23T19:49:16.328Z,12.98
2019-02-23T19:51:45.939Z,14.30
2019-02-23T19:54:15.567Z,13.65
2019-02-23T19:56:46.987Z,13.98
2019-02-23T19:59:16.660Z,16.15
2019-02-23T20:01:46.280Z,17.23
2019-02-23T20:04:15.865Z,14.85
2019-02-23T20:06:45.474Z,14.63
2019-02-23T20:09:15.080Z,14.35
2019-02-23T20:11:44.938Z,16.30
2019-02-23T20:14:14.539Z,16.17
2019-02-23T20:16:44.151Z,15.72
2019-02-23T20:19:13.726Z,14.65
2019-02-23T20:21:43.314Z,13.20
2019-02-23T20:24:12.861Z,13.40
2019-02-23T20:26:42.724Z,14.03
2019-02-23T20:29:12.520Z,15.98
2019-02-23T20:31:42.344Z,19.90
2019-02-23T20:34:12.219Z,18.15
2019-02-23T20:36:41.818Z,14.13
2019-02-23T20:39:11.421Z,13.05
2019-02-23T20:41:40.964Z,12.37
2019-02-23T20:44:10.687Z,13.55
2019-02-23T20:46:40.530Z,12.53
2019-02-23T20:49:10.383Z,13.03
2019-02-23T20:51:40.192Z,12.75
2019-02-23T20:54:09.780Z,13.90
2019-02-23T20:56:39.439Z,16.52
2019-02-23T20:59:09.303Z,16.65
2019-02-23T21:01:38.905Z,15.30
2019-02-23T21:04:08.511Z,16.50
2019-02-23T21:06:38.119Z,14.87
2019-02-23T21:09:07.805Z,16.10
2019-02-23T21:11:37.649Z,13.90
2019-02-23T21:14:07.216Z,14.00
2019-02-23T21:16:36.813Z,14.20
2019-02-23T21:19:06.545Z,15.00
2019-02-23T21:21:36.192Z,13.20
2019-02-23T21:24:05.775Z,13.75
2019-02-23T21:26:35.320Z,15.00
2019-02-23T21:29:04.965Z,13.98
2019-02-23T21:31:34.536Z,14.58
2019-02-23T21:34:04.260Z,14.98
2019-02-23T21:36:33.845Z,12.55
2019-02-23T21:39:03.617Z,14.70
2019-02-23T21:41:33.462Z,13.75
2019-02-23T21:44:03.091Z,11.45
2019-02-23T21:46:32.660Z,14.47
2019-02-23T21:49:02.335Z,12.28
2019-02-23T21:51:31.871Z,12.30
2019-02-23T21:54:09.768Z,13.90
2019-02-23T21:56:32.707Z,14.40
2019-02-23T21:59:02.540Z,14.13
2019-02-23T22:01:32.529Z,12.93
2019-02-23T22:04:02.437Z,12.98
2019-02-23T22:06:31.973Z,16.07
2019-02-23T22:09:01.617Z,14.83
2019-02-23T22:11:31.142Z,14.07
2019-02-23T22:14:00.724Z,13.98
2019-02-23T22:16:30.501Z,13.48
2019-02-23T22:19:00.309Z,15.03
2019-02-23T22:21:29.873Z,13.80
2019-02-23T22:23:59.417Z,14.45
2019-02-23T22:26:29.231Z,13.43
2019-02-23T22:28:58.765Z,17.98
2019-02-23T22:31:28.401Z,14.78
2019-02-23T22:33:57.923Z,15.48
2019-02-23T22:36:27.505Z,13.83
2019-02-23T22:38:57.306Z,12.45
2019-02-23T22:41:26.942Z,14.00
2019-02-23T22:43:56.482Z,13.50
2019-02-23T22:46:26.048Z,13.88
2019-02-23T22:48:55.890Z,17.62
2019-02-23T22:51:25.404Z,16.77
2019-02-23T22:53:55.200Z,15.98
2019-02-23T22:56:25.048Z,13.38
2019-02-23T22:58:54.849Z,14.20
2019-02-23T23:01:25.145Z,13.80
2019-02-23T23:03:54.709Z,18.82
2019-02-23T23:06:24.257Z,14.47
2019-02-23T23:08:54.027Z,16.55
2019-02-23T23:11:23.605Z,15.85
2019-02-23T23:13:53.162Z,13.32
2019-02-23T23:16:22.842Z,16.67
2019-02-23T23:18:52.398Z,14.45
2019-02-23T23:21:22.241Z,14.35
2019-02-23T23:23:51.811Z,15.03
2019-02-23T23:26:21.387Z,13.65
2019-02-23T23:28:51.233Z,13.90
2019-02-23T23:31:20.956Z,13.55
2019-02-23T23:33:50.492Z,14.65
2019-02-23T23:36:20.033Z,16.35
2019-02-23T23:38:49.610Z,14.38
2019-02-23T23:41:19.150Z,13.38
2019-02-23T23:43:48.804Z,16.70
2019-02-23T23:46:18.545Z,13.22
2019-02-23T23:48:48.376Z,13.22
2019-02-23T23:51:17.958Z,14.75
2019-02-23T23:53:47.748Z,15.15
2019-02-23T23:56:17.272Z,15.98
2019-02-23T23:58:46.809Z,13.50
